createdAt,value
2022-09-17T00:01:49.912Z,92.79
2022-09-17T00:04:16.114Z,92.64
2022-09-17T00:06:42.294Z,92.86
2022-09-17T00:09:08.648Z,92.86
2022-09-17T00:11:34.800Z,92.79
2022-09-17T00:14:00.989Z,92.86
2022-09-17T00:16:27.317Z,92.93
2022-09-17T00:18:53.597Z,93.11
2022-09-17T00:21:19.808Z,93.04
2022-09-17T00:23:46.033Z,92.92
2022-09-17T00:26:12.236Z,93.13
2022-09-17T00:28:38.432Z,93.16
2022-09-17T00:31:04.653Z,93.11
2022-09-17T00:33:30.803Z,93.04
2022-09-17T00:35:57.019Z,92.94
2022-09-17T00:38:23.201Z,93.00
2022-09-17T00:40:49.439Z,93.21
2022-09-17T00:43:15.613Z,92.97
2022-09-17T00:45:41.752Z,93.12
2022-09-17T00:48:07.867Z,93.15
2022-09-17T00:50:34.116Z,93.03
2022-09-17T00:53:00.329Z,93.13
2022-09-17T00:55:26.431Z,93.09
2022-09-17T00:57:52.694Z,93.05
2022-09-17T01:00:18.837Z,93.03
2022-09-17T01:02:44.937Z,93.03
2022-09-17T01:05:11.014Z,92.71
2022-09-17T01:07:37.130Z,92.74
2022-09-17T01:10:03.265Z,92.50
2022-09-17T01:12:29.408Z,92.44
2022-09-17T01:14:55.506Z,92.30
2022-09-17T01:17:21.625Z,92.20
2022-09-17T01:19:47.733Z,92.24
2022-09-17T01:22:13.887Z,91.98
2022-09-17T01:24:39.998Z,92.06
2022-09-17T01:27:06.114Z,91.76
2022-09-17T01:29:32.221Z,91.49
2022-09-17T01:31:58.322Z,91.69
2022-09-17T01:34:24.411Z,91.55
2022-09-17T01:36:50.518Z,91.51
2022-09-17T01:39:16.626Z,91.40
2022-09-17T01:41:42.730Z,91.33
2022-09-17T01:44:08.857Z,91.09
2022-09-17T01:46:34.993Z,90.99
2022-09-17T01:49:01.120Z,91.01
2022-09-17T01:51:27.233Z,90.80
2022-09-17T01:53:53.472Z,90.77
2022-09-17T01:56:19.671Z,90.55
2022-09-17T01:58:45.771Z,90.62
2022-09-17T02:01:11.943Z,90.60
2022-09-17T02:03:38.076Z,90.40
2022-09-17T02:06:04.199Z,90.26
2022-09-17T02:08:30.289Z,90.27
2022-09-17T02:10:56.433Z,90.17
2022-09-17T02:13:22.628Z,90.06
2022-09-17T02:15:48.779Z,90.25
2022-09-17T02:18:14.882Z,89.96
2022-09-17T02:20:40.997Z,90.11
2022-09-17T02:23:07.104Z,89.89
2022-09-17T02:25:33.207Z,89.88
2022-09-17T02:27:59.655Z,89.97
2022-09-17T02:30:25.758Z,89.72
2022-09-17T02:32:51.854Z,89.80
2022-09-17T02:35:17.960Z,89.82
2022-09-17T02:37:44.058Z,89.79
2022-09-17T02:40:10.172Z,89.78
2022-09-17T02:42:36.346Z,89.68
2022-09-17T02:45:02.449Z,89.65
2022-09-17T02:47:28.548Z,89.35
2022-09-17T02:49:54.668Z,89.54
2022-09-17T02:52:20.761Z,89.70
2022-09-17T02:54:46.850Z,89.63
2022-09-17T02:57:12.963Z,89.52
2022-09-17T02:59:39.066Z,89.46
2022-09-17T03:02:05.290Z,89.47
2022-09-17T03:04:31.502Z,89.62
2022-09-17T03:06:57.602Z,89.56
2022-09-17T03:09:23.699Z,89.29
2022-09-17T03:11:49.820Z,89.51
2022-09-17T03:14:15.941Z,89.42
2022-09-17T03:16:42.050Z,89.50
2022-09-17T03:19:08.220Z,89.51
2022-09-17T03:21:34.322Z,89.34
2022-09-17T03:24:00.427Z,89.39
2022-09-17T03:26:26.547Z,89.33
2022-09-17T03:28:52.659Z,89.36
2022-09-17T03:31:18.826Z,89.33
2022-09-17T03:33:44.959Z,89.14
2022-09-17T03:36:11.040Z,89.18
2022-09-17T03:38:37.131Z,88.99
2022-09-17T03:41:03.250Z,88.94
2022-09-17T03:43:29.364Z,89.04
2022-09-17T03:45:55.454Z,89.01
2022-09-17T03:48:21.565Z,88.83
2022-09-17T03:50:47.661Z,88.76
2022-09-17T03:53:13.749Z,88.66
2022-09-17T03:55:39.856Z,88.83
2022-09-17T03:58:05.957Z,88.79
2022-09-17T04:00:32.045Z,88.60
2022-09-17T04:02:58.200Z,88.61
2022-09-17T04:05:24.365Z,88.48
2022-09-17T04:07:50.461Z,88.46
2022-09-17T04:10:16.590Z,88.55
2022-09-17T04:12:42.701Z,88.47
2022-09-17T04:15:08.804Z,88.38
2022-09-17T04:17:34.922Z,88.40
2022-09-17T04:20:01.023Z,88.31
2022-09-17T04:22:27.105Z,88.40
2022-09-17T04:24:53.218Z,88.34
2022-09-17T04:27:19.313Z,88.28
2022-09-17T04:29:45.420Z,88.27
2022-09-17T04:32:11.569Z,88.19
2022-09-17T04:34:37.675Z,88.31
2022-09-17T04:37:03.774Z,88.22
2022-09-17T04:39:29.889Z,88.04
2022-09-17T04:41:55.990Z,88.15
2022-09-17T04:44:22.110Z,88.20
2022-09-17T04:46:48.288Z,87.99
2022-09-17T04:49:14.412Z,88.11
2022-09-17T04:51:40.506Z,88.15
2022-09-17T04:54:06.629Z,87.90
2022-09-17T04:56:32.735Z,88.16
2022-09-17T04:58:58.836Z,88.05
2022-09-17T05:01:25.032Z,88.09
2022-09-17T05:03:51.156Z,88.19
2022-09-17T05:06:17.243Z,87.94
2022-09-17T05:08:43.353Z,87.94
2022-09-17T05:11:09.449Z,88.02
2022-09-17T05:13:35.542Z,87.95
2022-09-17T05:16:01.687Z,87.90
2022-09-17T05:18:27.832Z,87.89
2022-09-17T05:20:53.976Z,87.88
2022-09-17T05:23:20.073Z,87.97
2022-09-17T05:25:46.156Z,87.90
2022-09-17T05:28:12.255Z,87.64
2022-09-17T05:30:38.377Z,87.71
2022-09-17T05:33:04.474Z,87.83
2022-09-17T05:35:30.570Z,87.57
2022-09-17T05:37:57.227Z,87.75
2022-09-17T05:40:23.377Z,87.69
2022-09-17T05:42:49.525Z,87.63
2022-09-17T05:45:15.643Z,87.55
2022-09-17T05:47:41.732Z,87.52
2022-09-17T05:50:07.835Z,87.44
2022-09-17T05:52:33.963Z,87.18
2022-09-17T05:55:00.085Z,87.35
2022-09-17T05:57:26.180Z,87.27
2022-09-17T05:59:52.325Z,87.22
2022-09-17T06:02:18.511Z,87.10
2022-09-17T06:04:44.694Z,86.92
2022-09-17T06:07:10.812Z,86.84
2022-09-17T06:09:36.904Z,86.99
2022-09-17T06:12:02.996Z,86.77
2022-09-17T06:14:29.102Z,86.82
2022-09-17T06:16:55.186Z,86.74
2022-09-17T06:19:21.292Z,86.65
2022-09-17T06:21:47.883Z,86.69
2022-09-17T06:24:13.974Z,86.63
2022-09-17T06:26:40.054Z,86.64
2022-09-17T06:29:06.174Z,86.41
2022-09-17T06:31:32.353Z,86.30
2022-09-17T06:33:58.682Z,86.07
2022-09-17T06:36:24.821Z,85.97
2022-09-17T06:38:50.907Z,85.78
2022-09-17T06:41:17.018Z,85.63
2022-09-17T06:43:43.136Z,85.36
2022-09-17T06:46:09.491Z,85.30
2022-09-17T06:48:35.679Z,85.06
2022-09-17T06:51:01.783Z,84.95
2022-09-17T06:53:27.876Z,84.79
2022-09-17T06:55:53.972Z,84.66
2022-09-17T06:58:20.445Z,84.32
2022-09-17T07:00:46.607Z,84.24
2022-09-17T07:03:12.717Z,84.10
2022-09-17T07:05:38.819Z,83.80
2022-09-17T07:08:04.906Z,83.54
2022-09-17T07:10:30.995Z,83.64
2022-09-17T07:12:57.105Z,83.41
2022-09-17T07:15:23.185Z,83.20
2022-09-17T07:17:49.291Z,83.10
2022-09-17T07:20:15.398Z,82.90
2022-09-17T07:22:41.489Z,82.79
2022-09-17T07:25:07.586Z,82.55
2022-09-17T07:27:33.687Z,82.39
2022-09-17T07:29:59.786Z,82.18
2022-09-17T07:32:29.726Z,82.12
2022-09-17T07:34:55.890Z,82.08
2022-09-17T07:37:22.013Z,81.86
2022-09-17T07:39:48.103Z,81.92
2022-09-17T07:42:14.775Z,82.15
2022-09-17T07:44:40.942Z,82.25
2022-09-17T07:47:07.053Z,82.06
2022-09-17T07:49:33.172Z,82.00
2022-09-17T07:51:59.256Z,81.90
2022-09-17T07:54:25.359Z,81.87
2022-09-17T07:56:51.458Z,81.76
2022-09-17T07:59:17.550Z,81.52
2022-09-17T08:01:43.725Z,81.35
2022-09-17T08:04:09.893Z,81.32
2022-09-17T08:06:35.993Z,81.00
2022-09-17T08:09:02.108Z,80.95
2022-09-17T08:11:51.875Z,80.45
2022-09-17T08:14:14.306Z,80.41
2022-09-17T08:16:40.430Z,80.18
2022-09-17T08:19:06.527Z,79.75
2022-09-17T08:21:32.618Z,79.34
2022-09-17T08:23:58.720Z,79.13
2022-09-17T08:26:24.830Z,79.23
2022-09-17T08:28:50.928Z,79.13
2022-09-17T08:31:17.460Z,78.76
2022-09-17T08:33:43.719Z,78.46
2022-09-17T08:36:09.896Z,78.14
2022-09-17T08:38:38.256Z,77.77
2022-09-17T08:41:04.679Z,77.72
2022-09-17T08:43:30.804Z,77.54
2022-09-17T08:45:57.512Z,77.35
2022-09-17T08:48:23.598Z,76.92
2022-09-17T08:50:49.696Z,76.72
2022-09-17T08:53:15.799Z,76.64
2022-09-17T08:55:41.903Z,76.06
2022-09-17T08:58:07.984Z,75.98
2022-09-17T09:00:34.093Z,75.62
2022-09-17T09:03:00.220Z,75.23
2022-09-17T09:05:26.345Z,74.91
2022-09-17T09:07:52.459Z,74.45
2022-09-17T09:10:18.548Z,74.17
2022-09-17T09:12:44.639Z,73.45
2022-09-17T09:15:10.742Z,72.89
2022-09-17T09:17:36.843Z,72.59
2022-09-17T09:20:02.937Z,71.89
2022-09-17T09:22:29.050Z,71.47
2022-09-17T09:24:55.153Z,70.66
2022-09-17T09:27:21.246Z,70.17
2022-09-17T09:29:47.343Z,69.59
2022-09-17T09:32:16.590Z,68.70
2022-09-17T09:34:43.024Z,68.38
2022-09-17T09:37:10.372Z,68.25
2022-09-17T09:39:42.492Z,67.87
2022-09-17T09:42:11.353Z,67.86
2022-09-17T09:44:37.511Z,67.25
2022-09-17T09:47:03.660Z,66.95
2022-09-17T09:49:30.428Z,66.67
2022-09-17T09:51:56.529Z,66.46
2022-09-17T09:54:22.626Z,66.53
2022-09-17T09:56:48.740Z,66.05
2022-09-17T09:59:14.833Z,66.02
2022-09-17T10:01:41.026Z,65.34
2022-09-17T10:04:07.206Z,65.08
2022-09-17T10:06:33.301Z,65.02
2022-09-17T10:08:59.419Z,64.58
2022-09-17T10:11:25.573Z,64.38
2022-09-17T10:13:51.738Z,64.15
2022-09-17T10:16:17.934Z,63.80
2022-09-17T10:18:44.207Z,63.49
2022-09-17T10:21:10.302Z,63.21
2022-09-17T10:23:36.444Z,62.81
2022-09-17T10:26:02.690Z,62.51
2022-09-17T10:28:28.920Z,62.23
2022-09-17T10:30:55.257Z,62.14
2022-09-17T10:33:21.932Z,62.03
2022-09-17T10:35:48.036Z,62.07
2022-09-17T10:38:14.172Z,61.75
2022-09-17T10:40:40.316Z,61.44
2022-09-17T10:43:06.446Z,61.42
2022-09-17T10:45:32.687Z,60.74
2022-09-17T10:47:58.820Z,60.56
2022-09-17T10:50:26.105Z,60.61
2022-09-17T10:52:52.237Z,60.16
2022-09-17T10:55:18.340Z,59.72
2022-09-17T10:57:44.431Z,59.30
2022-09-17T11:00:10.572Z,59.00
2022-09-17T11:02:36.830Z,58.42
2022-09-17T11:05:03.206Z,58.14
2022-09-17T11:07:29.322Z,57.81
2022-09-17T11:09:55.450Z,57.72
2022-09-17T11:12:21.546Z,57.25
2022-09-17T11:14:47.625Z,57.07
2022-09-17T11:17:13.732Z,56.58
2022-09-17T11:19:39.879Z,55.93
2022-09-17T11:22:05.983Z,55.93
2022-09-17T11:24:34.281Z,55.86
2022-09-17T11:27:00.373Z,55.88
2022-09-17T11:29:26.465Z,56.01
2022-09-17T11:31:52.654Z,56.08
2022-09-17T11:34:18.913Z,56.06
2022-09-17T11:36:45.045Z,56.66
2022-09-17T11:39:11.643Z,56.40
2022-09-17T11:41:37.736Z,56.05
2022-09-17T11:44:03.891Z,55.77
2022-09-17T11:46:30.118Z,55.91
2022-09-17T11:48:56.283Z,55.80
2022-09-17T11:51:22.381Z,56.07
2022-09-17T11:53:48.491Z,56.39
2022-09-17T11:56:16.127Z,57.35
2022-09-17T11:58:42.792Z,57.86
2022-09-17T12:01:08.890Z,57.79
2022-09-17T12:03:34.995Z,58.49
2022-09-17T12:06:01.094Z,58.51
2022-09-17T12:08:27.201Z,58.43
2022-09-17T12:10:53.282Z,58.66
2022-09-17T12:13:19.398Z,58.71
2022-09-17T12:15:48.675Z,58.67
2022-09-17T12:18:33.459Z,58.14
2022-09-17T12:20:59.820Z,58.09
2022-09-17T12:23:25.906Z,58.16
2022-09-17T12:25:52.000Z,58.28
2022-09-17T12:28:18.125Z,58.23
2022-09-17T12:30:44.213Z,57.94
2022-09-17T12:33:10.302Z,58.11
2022-09-17T12:36:02.404Z,58.25
2022-09-17T12:38:22.482Z,58.24
2022-09-17T12:40:48.954Z,58.43
2022-09-17T12:43:15.048Z,58.99
2022-09-17T12:45:41.142Z,59.96
2022-09-17T12:48:07.312Z,62.71
2022-09-17T12:50:33.425Z,65.84
2022-09-17T12:52:59.523Z,67.90
2022-09-17T12:55:25.973Z,69.39
2022-09-17T12:57:52.063Z,70.40
2022-09-17T13:00:18.154Z,71.52
2022-09-17T13:02:44.252Z,72.50
2022-09-17T13:05:10.356Z,73.19
2022-09-17T13:07:36.454Z,73.67
2022-09-17T13:10:02.567Z,73.85
2022-09-17T13:12:28.653Z,73.46
2022-09-17T13:14:54.754Z,73.04
2022-09-17T13:17:20.848Z,72.86
2022-09-17T13:19:46.944Z,72.30
2022-09-17T13:22:13.044Z,72.07
2022-09-17T13:24:39.153Z,71.68
2022-09-17T13:27:05.364Z,71.70
2022-09-17T13:29:31.574Z,71.68
2022-09-17T13:31:57.729Z,71.97
2022-09-17T13:34:23.815Z,71.97
2022-09-17T13:36:49.914Z,72.02
2022-09-17T13:39:16.043Z,71.81
2022-09-17T13:41:42.142Z,72.07
2022-09-17T13:44:08.238Z,72.82
2022-09-17T13:46:34.482Z,74.28
2022-09-17T13:49:00.686Z,75.29
2022-09-17T13:51:26.807Z,76.01
2022-09-17T13:53:52.993Z,76.52
2022-09-17T13:56:19.093Z,76.62
2022-09-17T13:58:45.387Z,76.56
2022-09-17T14:01:11.910Z,75.72
2022-09-17T14:03:38.188Z,74.96
2022-09-17T14:06:04.278Z,74.14
2022-09-17T14:08:30.460Z,73.13
2022-09-17T14:10:56.857Z,72.62
2022-09-17T14:13:22.969Z,72.23
2022-09-17T14:15:49.111Z,71.84
2022-09-17T14:18:15.215Z,71.67
2022-09-17T14:20:41.322Z,71.06
2022-09-17T14:23:07.433Z,70.70
2022-09-17T14:25:33.567Z,70.67
2022-09-17T14:27:59.892Z,70.44
2022-09-17T14:30:26.162Z,70.09
2022-09-17T14:32:52.481Z,69.88
2022-09-17T14:35:20.324Z,70.18
2022-09-17T14:37:46.766Z,70.13
2022-09-17T14:40:13.455Z,70.02
2022-09-17T14:42:39.614Z,69.80
2022-09-17T14:45:05.838Z,69.34
2022-09-17T14:47:31.987Z,69.16
2022-09-17T14:49:58.209Z,68.73
2022-09-17T14:52:24.394Z,68.90
2022-09-17T14:54:50.492Z,68.84
2022-09-17T14:57:16.578Z,68.96
2022-09-17T14:59:43.040Z,68.85
2022-09-17T15:02:09.235Z,68.71
2022-09-17T15:04:35.401Z,68.70
2022-09-17T15:07:01.518Z,68.88
2022-09-17T15:09:27.608Z,68.06
2022-09-17T15:11:53.718Z,67.11
2022-09-17T15:14:19.826Z,66.62
2022-09-17T15:16:45.911Z,66.85
2022-09-17T15:19:12.007Z,67.08
2022-09-17T15:21:38.118Z,67.41
2022-09-17T15:24:04.212Z,68.63
2022-09-17T15:26:30.324Z,69.45
2022-09-17T15:28:56.422Z,70.32
2022-09-17T15:31:22.654Z,69.48
2022-09-17T15:33:48.840Z,69.21
2022-09-17T15:36:14.943Z,68.56
2022-09-17T15:38:41.029Z,66.67
2022-09-17T15:41:07.122Z,65.36
2022-09-17T15:43:33.254Z,65.92
2022-09-17T15:45:59.376Z,67.01
2022-09-17T15:48:25.479Z,67.64
2022-09-17T15:50:52.065Z,67.76
2022-09-17T15:53:18.157Z,68.47
2022-09-17T15:55:44.276Z,68.71
2022-09-17T15:58:10.394Z,69.25
2022-09-17T16:00:36.493Z,69.70
2022-09-17T16:03:02.768Z,70.53
2022-09-17T16:05:28.973Z,70.27
2022-09-17T16:07:55.085Z,70.16
2022-09-17T16:10:21.205Z,70.29
2022-09-17T16:12:47.335Z,70.39
2022-09-17T16:15:13.438Z,70.70
2022-09-17T16:17:39.520Z,70.70
2022-09-17T16:20:06.491Z,69.97
2022-09-17T16:22:32.649Z,69.25
2022-09-17T16:24:58.730Z,69.16
2022-09-17T16:27:24.855Z,68.95
2022-09-17T16:29:50.937Z,69.07
2022-09-17T16:32:17.045Z,69.26
2022-09-17T16:34:43.167Z,69.35
2022-09-17T16:37:09.265Z,69.79
2022-09-17T16:39:35.357Z,70.12
2022-09-17T16:42:01.574Z,70.43
2022-09-17T16:44:27.672Z,70.61
2022-09-17T16:46:53.817Z,70.99
2022-09-17T16:49:19.944Z,71.20
2022-09-17T16:51:46.050Z,71.14
2022-09-17T16:54:12.141Z,71.17
2022-09-17T16:56:38.247Z,72.07
2022-09-17T16:59:04.347Z,72.80
2022-09-17T17:01:30.474Z,73.42
2022-09-17T17:03:58.162Z,73.64
2022-09-17T17:06:24.253Z,73.65
2022-09-17T17:08:50.348Z,73.50
2022-09-17T17:11:16.968Z,73.14
2022-09-17T17:13:43.106Z,72.69
2022-09-17T17:16:09.281Z,72.47
2022-09-17T17:18:35.675Z,72.55
2022-09-17T17:21:01.772Z,72.54
2022-09-17T17:23:27.853Z,72.64
2022-09-17T17:25:53.957Z,72.74
2022-09-17T17:28:20.056Z,72.76
2022-09-17T17:30:46.162Z,72.83
2022-09-17T17:33:12.274Z,72.90
2022-09-17T17:35:38.374Z,73.00
2022-09-17T17:38:04.480Z,73.07
2022-09-17T17:40:30.637Z,73.29
2022-09-17T17:42:56.819Z,72.97
2022-09-17T17:45:22.930Z,73.21
2022-09-17T17:47:49.055Z,73.42
2022-09-17T17:50:15.196Z,73.38
2022-09-17T17:52:44.155Z,73.43
2022-09-17T17:55:10.261Z,73.53
2022-09-17T17:57:36.353Z,73.56
2022-09-17T18:00:02.445Z,73.51
2022-09-17T18:02:28.732Z,73.79
2022-09-17T18:04:54.892Z,73.79
2022-09-17T18:07:20.994Z,73.69
2022-09-17T18:09:47.144Z,73.92
2022-09-17T18:12:13.307Z,73.93
2022-09-17T18:14:39.430Z,74.03
2022-09-17T18:17:05.559Z,74.25
2022-09-17T18:19:31.649Z,74.31
2022-09-17T18:21:57.729Z,74.53
2022-09-17T18:24:23.855Z,74.55
2022-09-17T18:26:49.958Z,74.65
2022-09-17T18:29:16.054Z,74.94
2022-09-17T18:31:42.223Z,74.98
2022-09-17T18:34:08.404Z,75.31
2022-09-17T18:36:34.529Z,75.32
2022-09-17T18:39:11.053Z,75.34
2022-09-17T18:41:46.836Z,75.49
2022-09-17T18:44:13.089Z,75.48
2022-09-17T18:46:39.413Z,75.63
2022-09-17T18:49:05.616Z,75.56
2022-09-17T18:51:31.754Z,75.70
2022-09-17T18:53:57.859Z,75.72
2022-09-17T18:56:23.950Z,75.81
2022-09-17T18:58:50.052Z,75.72
2022-09-17T19:01:16.290Z,75.95
2022-09-17T19:03:42.512Z,75.81
2022-09-17T19:06:08.636Z,75.88
2022-09-17T19:08:34.735Z,75.94
2022-09-17T19:11:00.832Z,76.21
2022-09-17T19:13:27.000Z,76.00
2022-09-17T19:15:53.238Z,75.97
2022-09-17T19:18:19.452Z,76.02
2022-09-17T19:20:45.641Z,76.05
2022-09-17T19:23:11.784Z,76.08
2022-09-17T19:25:37.900Z,76.12
2022-09-17T19:28:04.013Z,76.08
2022-09-17T19:30:30.174Z,76.25
2022-09-17T19:32:56.291Z,76.26
2022-09-17T19:35:22.398Z,76.45
2022-09-17T19:37:48.495Z,76.32
2022-09-17T19:40:14.649Z,76.37
2022-09-17T19:42:40.831Z,76.49
2022-09-17T19:45:06.957Z,76.66
2022-09-17T19:47:33.054Z,76.45
2022-09-17T19:49:59.360Z,76.60
2022-09-17T19:52:25.444Z,76.58
2022-09-17T19:54:51.545Z,76.72
2022-09-17T19:57:17.693Z,76.79
2022-09-17T19:59:43.780Z,76.80
2022-09-17T20:02:09.937Z,77.03
2022-09-17T20:04:36.205Z,77.19
2022-09-17T20:07:02.354Z,77.38
2022-09-17T20:09:28.481Z,77.54
2022-09-17T20:11:54.892Z,77.65
2022-09-17T20:14:20.980Z,77.87
2022-09-17T20:16:47.095Z,77.91
2022-09-17T20:19:13.624Z,77.83
2022-09-17T20:21:39.787Z,78.14
2022-09-17T20:24:05.883Z,77.87
2022-09-17T20:26:32.001Z,78.12
2022-09-17T20:28:58.217Z,78.15
2022-09-17T20:31:24.408Z,78.10
2022-09-17T20:33:50.556Z,78.24
2022-09-17T20:36:16.691Z,78.18
2022-09-17T20:39:11.385Z,78.22
2022-09-17T20:41:28.894Z,78.12
2022-09-17T20:43:54.973Z,78.18
2022-09-17T20:46:24.825Z,78.16
2022-09-17T20:48:53.874Z,78.17
2022-09-17T20:51:19.982Z,78.18
2022-09-17T20:53:46.086Z,78.20
2022-09-17T20:56:12.196Z,78.24
2022-09-17T20:58:38.276Z,78.26
2022-09-17T21:01:04.369Z,78.29
2022-09-17T21:03:30.960Z,78.07
2022-09-17T21:05:57.072Z,78.01
2022-09-17T21:08:23.186Z,78.04
2022-09-17T21:10:49.305Z,78.00
2022-09-17T21:13:15.406Z,77.96
2022-09-17T21:15:41.553Z,78.04
2022-09-17T21:18:09.070Z,77.98
2022-09-17T21:20:35.170Z,78.20
2022-09-17T21:23:01.262Z,78.29
2022-09-17T21:25:27.383Z,78.39
2022-09-17T21:27:53.468Z,78.42
2022-09-17T21:30:19.561Z,78.46
2022-09-17T21:32:45.668Z,78.53
2022-09-17T21:35:11.770Z,78.69
2022-09-17T21:37:37.862Z,78.81
2022-09-17T21:40:04.122Z,78.90
2022-09-17T21:42:30.266Z,79.03
2022-09-17T21:44:56.357Z,79.09
2022-09-17T21:47:22.470Z,79.14
2022-09-17T21:49:48.557Z,79.11
2022-09-17T21:52:14.664Z,79.15
2022-09-17T21:54:40.795Z,79.13
2022-09-17T21:57:06.911Z,79.31
2022-09-17T21:59:33.008Z,79.51
2022-09-17T22:01:59.171Z,79.47
2022-09-17T22:04:25.329Z,79.68
2022-09-17T22:06:51.421Z,79.45
2022-09-17T22:09:17.578Z,79.53
2022-09-17T22:11:43.718Z,79.66
2022-09-17T22:14:09.808Z,79.77
2022-09-17T22:16:36.011Z,79.74
2022-09-17T22:19:02.182Z,79.90
2022-09-17T22:21:28.267Z,79.76
2022-09-17T22:23:54.453Z,79.94
2022-09-17T22:26:20.554Z,79.98
2022-09-17T22:28:46.652Z,80.19
2022-09-17T22:31:12.789Z,80.20
2022-09-17T22:33:38.965Z,80.32
2022-09-17T22:36:05.074Z,80.36
2022-09-17T22:38:31.176Z,80.44
2022-09-17T22:40:57.264Z,80.40
2022-09-17T22:43:23.357Z,80.61
2022-09-17T22:45:49.486Z,80.66
2022-09-17T22:48:15.806Z,80.67
2022-09-17T22:50:41.899Z,80.56
2022-09-17T22:53:08.037Z,80.84
2022-09-17T22:55:34.127Z,80.82
2022-09-17T22:58:00.221Z,81.17
2022-09-17T23:00:26.361Z,81.04
2022-09-17T23:02:52.572Z,81.02
2022-09-17T23:05:18.701Z,81.02
2022-09-17T23:07:45.121Z,81.10
2022-09-17T23:10:11.227Z,81.28
2022-09-17T23:12:37.343Z,81.38
2022-09-17T23:15:03.467Z,81.38
2022-09-17T23:17:29.637Z,81.48
2022-09-17T23:19:55.741Z,81.21
2022-09-17T23:22:21.859Z,81.37
2022-09-17T23:24:47.948Z,81.51
2022-09-17T23:27:14.030Z,81.78
2022-09-17T23:29:40.426Z,81.91
2022-09-17T23:32:06.573Z,81.95
2022-09-17T23:34:32.666Z,81.96
2022-09-17T23:36:58.764Z,82.09
2022-09-17T23:39:24.903Z,82.33
2022-09-17T23:41:50.993Z,82.45
2022-09-17T23:44:17.097Z,82.45
2022-09-17T23:46:43.300Z,82.48
2022-09-17T23:49:09.445Z,82.72
2022-09-17T23:51:35.546Z,82.66
2022-09-17T23:54:01.666Z,82.82
2022-09-17T23:56:27.806Z,82.83
2022-09-17T23:58:53.915Z,83.00
